createdAt,value
2018-08-16T00:00:51.159Z,51.66
2018-08-16T00:15:50.559Z,51.89
2018-08-16T00:30:50.310Z,51.73
2018-08-16T00:45:50.383Z,50.58
2018-08-16T01:00:50.567Z,50.10
2018-08-16T01:15:50.746Z,51.12
2018-08-16T01:30:50.985Z,50.87
2018-08-16T01:45:50.721Z,51.17
2018-08-16T02:00:50.711Z,50.51
2018-08-16T02:15:50.151Z,50.38
2018-08-16T02:30:49.699Z,51.19
2018-08-16T02:45:50.107Z,52.37
2018-08-16T03:00:50.289Z,51.55
2018-08-16T03:15:51.444Z,51.04
2018-08-16T03:30:52.576Z,50.63
2018-08-16T03:45:50.493Z,50.92
2018-08-16T04:00:50.676Z,55.41
2018-08-16T04:15:52.918Z,53.99
2018-08-16T04:30:50.859Z,54.10
2018-08-16T04:45:50.829Z,53.64
2018-08-16T05:00:50.978Z,51.84
2018-08-16T05:15:50.635Z,50.89
2018-08-16T05:30:50.547Z,49.90
2018-08-16T05:45:50.456Z,48.34
2018-08-16T06:00:50.488Z,48.10
2018-08-16T06:15:50.977Z,46.33
2018-08-16T06:30:50.972Z,45.07
2018-08-16T06:45:50.851Z,43.77
2018-08-16T07:00:50.893Z,41.41
2018-08-16T07:15:50.340Z,38.71
2018-08-16T07:30:50.354Z,37.49
2018-08-16T07:45:50.475Z,35.16
2018-08-16T08:00:53.225Z,34.41
2018-08-16T08:15:50.823Z,34.47
2018-08-16T08:45:50.305Z,34.05
2018-08-16T09:00:50.720Z,32.68
2018-08-16T09:15:51.417Z,32.31
2018-08-16T10:00:56.339Z,29.75
2018-08-16T10:15:50.613Z,29.14
2018-08-16T10:30:50.797Z,29.90
2018-08-16T10:45:50.979Z,32.89
2018-08-16T11:00:50.510Z,32.74
2018-08-16T11:15:51.076Z,33.22
2018-08-16T11:30:50.903Z,33.14
2018-08-16T11:45:50.864Z,31.60
2018-08-16T12:00:51.408Z,31.39
2018-08-16T12:15:52.890Z,32.60
2018-08-16T12:30:51.319Z,33.16
2018-08-16T12:45:51.795Z,35.34
2018-08-16T13:00:54.178Z,36.53
2018-08-16T13:15:50.731Z,37.23
2018-08-16T13:30:50.795Z,37.94
2018-08-16T13:45:51.038Z,38.51
2018-08-16T14:00:51.347Z,39.21
2018-08-16T14:15:51.319Z,38.78
2018-08-16T14:30:51.588Z,38.33
2018-08-16T14:45:55.785Z,38.75
2018-08-16T15:00:50.617Z,39.84
2018-08-16T15:15:50.907Z,41.53
2018-08-16T15:30:50.747Z,42.01
2018-08-16T15:45:52.484Z,41.96
2018-08-16T16:00:50.980Z,41.13
2018-08-16T16:15:50.882Z,42.04
2018-08-16T16:30:50.968Z,42.52
2018-08-16T16:45:50.940Z,43.50
2018-08-16T17:00:51.394Z,43.83
2018-08-16T17:15:51.330Z,45.13
2018-08-16T17:30:51.335Z,45.17
2018-08-16T17:45:52.452Z,45.04
2018-08-16T18:00:50.854Z,48.80
2018-08-16T18:15:51.774Z,49.10
2018-08-16T18:30:50.773Z,47.81
2018-08-16T18:45:52.548Z,47.93
2018-08-16T19:00:51.318Z,47.78
2018-08-16T19:15:51.240Z,47.07
2018-08-16T19:30:52.724Z,47.40
2018-08-16T19:45:50.718Z,47.84
2018-08-16T20:00:50.808Z,46.19
2018-08-16T20:15:52.647Z,45.83
2018-08-16T20:30:50.720Z,45.03
2018-08-16T20:45:52.668Z,45.39
2018-08-16T21:00:57.401Z,44.99
2018-08-16T21:15:53.065Z,44.48
2018-08-16T21:30:50.969Z,45.29
2018-08-16T21:45:50.951Z,47.03
2018-08-16T22:00:53.571Z,47.42
2018-08-16T22:15:53.457Z,46.76
2018-08-16T22:30:51.420Z,47.03
2018-08-16T22:45:53.425Z,47.68
2018-08-16T23:00:50.895Z,47.54
2018-08-16T23:15:50.888Z,46.93
2018-08-16T23:30:50.737Z,48.00
2018-08-16T23:45:50.850Z,48.28
